Time;durP1;ratioP1;P1;durP2;ratioP2;P2;SDS_P1;SDS_P2;PMS_P1;PMS_P2;Temp;Humidity;BMP_temperature;BMP_pressure;BME280_temperature;BME280_humidity;BME280_pressure;Samples;Min_cycle;Max_cycle;Signal;HPM_P1;HPM_P2
2023/07/11 00:01:32;;;;;;;7.8;5.2;;;;;;;21.2;77.85938;942.2763;;;;
2023/07/11 00:04:05;;;;;;;13.9;6.1;;;;;;;21.27;77.51953;942.2583;;;;
2023/07/11 00:06:44;;;;;;;9.1;5.5;;;;;;;21.15;77.7793;942.2438;;;;
2023/07/11 00:09:17;;;;;;;7.6;5.4;;;;;;;20.96;78.58789;942.1994;;;;
2023/07/11 00:11:42;;;;;;;7.5;5.5;;;;;;;21.03;78.35352;942.2515;;;;
2023/07/11 00:14:13;;;;;;;8.3;5.6;;;;;;;20.95;78.67969;942.2369;;;;
2023/07/11 00:16:37;;;;;;;9.2;6.1;;;;;;;20.7;79.56836;942.2709;;;;
2023/07/11 00:19:05;;;;;;;8.9;6.1;;;;;;;20.59;80.05273;942.2723;;;;
2023/07/11 00:21:29;;;;;;;9.9;6.1;;;;;;;20.61;79.83594;942.2977;;;;
2023/07/11 00:24:03;;;;;;;12.4;6;;;;;;;20.64;79.73438;942.3031;;;;
2023/07/11 00:26:22;;;;;;;8.5;5.8;;;;;;;20.57;80.13184;942.2209;;;;
2023/07/11 00:28:51;;;;;;;8.8;5.7;;;;;;;20.74;79.58789;942.2159;;;;
2023/07/11 00:31:16;;;;;;;9.4;6.2;;;;;;;20.82;79.30078;942.2335;;;;
2023/07/11 00:33:44;;;;;;;9.7;6;;;;;;;20.82;79.45117;942.2811;;;;
2023/07/11 00:36:10;;;;;;;10.1;6.4;;;;;;;20.74;79.79883;942.2612;;;;
2023/07/11 00:38:37;;;;;;;8.4;6;;;;;;;20.59;80.33203;942.2068;;;;
2023/07/11 00:41:03;;;;;;;8.6;6;;;;;;;20.55;80.62891;942.241;;;;
2023/07/11 00:43:30;;;;;;;8.9;6.4;;;;;;;20.49;80.86426;942.1978;;;;
2023/07/11 00:45:55;;;;;;;8.7;6.1;;;;;;;20.63;80.39844;942.1203;;;;
2023/07/11 00:48:22;;;;;;;9.3;6;;;;;;;20.74;79.96387;942.1356;;;;
2023/07/11 00:50:47;;;;;;;8.2;6.2;;;;;;;20.76;79.55762;942.1075;;;;
2023/07/11 00:53:17;;;;;;;10.2;5.9;;;;;;;20.8;79.70508;942.1002;;;;
2023/07/11 00:55:42;;;;;;;10.3;6.1;;;;;;;20.73;79.92383;942.0817;;;;
2023/07/11 00:58:10;;;;;;;11.1;6;;;;;;;20.65;79.77051;942.0811;;;;
2023/07/11 01:00:35;;;;;;;8;6;;;;;;;20.59;79.99414;942.0708;;;;
2023/07/11 01:03:06;;;;;;;9;6.2;;;;;;;20.62;80.47852;942.1075;;;;
2023/07/11 01:05:37;;;;;;;7.4;6;;;;;;;20.62;80.41992;942.1017;;;;
2023/07/11 01:08:00;;;;;;;12.3;6.3;;;;;;;20.57;80.6084;941.9969;;;;
2023/07/11 01:10:28;;;;;;;9.2;6.3;;;;;;;20.58;80.5752;942.0064;;;;
2023/07/11 01:12:53;;;;;;;8.9;6.2;;;;;;;20.61;80.46484;942;;;;
2023/07/11 01:15:22;;;;;;;9.7;6.3;;;;;;;20.62;80.06934;942.0086;;;;
2023/07/11 01:17:47;;;;;;;8.5;6.1;;;;;;;20.64;79.81543;941.9908;;;;
2023/07/11 01:20:16;;;;;;;10.9;6.1;;;;;;;20.53;79.9248;941.9515;;;;
2023/07/11 01:22:48;;;;;;;9.1;6.7;;;;;;;20.45;79.94531;941.9179;;;;
2023/07/11 01:25:11;;;;;;;10.2;6.5;;;;;;;20.44;80.34082;941.8865;;;;
2023/07/11 01:27:38;;;;;;;12;6.2;;;;;;;20.44;80.59766;941.9028;;;;
2023/07/11 01:30:03;;;;;;;9.2;6.5;;;;;;;20.42;80.57129;941.8254;;;;
2023/07/11 01:32:28;;;;;;;10.3;6.6;;;;;;;20.4;80.28711;941.7703;;;;
2023/07/11 01:34:53;;;;;;;8.9;6;;;;;;;20.27;81.05664;941.8105;;;;
2023/07/11 01:37:19;;;;;;;8.3;6;;;;;;;20.27;80.95117;941.8251;;;;
2023/07/11 01:39:45;;;;;;;10.4;6.5;;;;;;;20.3;79.56836;941.7289;;;;
2023/07/11 01:42:15;;;;;;;8.9;6.4;;;;;;;20.2;80.77637;941.7712;;;;
2023/07/11 01:44:43;;;;;;;10.6;6.8;;;;;;;20.19;80.97168;941.7642;;;;
2023/07/11 01:47:08;;;;;;;10.9;6.8;;;;;;;20.17;81.41309;941.7703;;;;
2023/07/11 01:49:35;;;;;;;9.3;6.3;;;;;;;20.2;81.45215;941.752;;;;
2023/07/11 01:52:00;;;;;;;10;6.7;;;;;;;20.21;81.1748;941.7607;;;;
2023/07/11 01:54:29;;;;;;;8.9;6.2;;;;;;;20.23;81.13184;941.7095;;;;
2023/07/11 01:56:54;;;;;;;14.2;6.5;;;;;;;20.25;81.26172;941.6299;;;;
2023/07/11 01:59:21;;;;;;;10;6.6;;;;;;;20.25;81.11133;941.625;;;;
2023/07/11 02:01:47;;;;;;;11.7;6.7;;;;;;;20.17;81.65527;941.7082;;;;
2023/07/11 02:04:21;;;;;;;9.6;6.4;;;;;;;20.02;82.12988;941.6069;;;;
2023/07/11 02:06:43;;;;;;;9.7;7.1;;;;;;;19.98;82.08887;941.6036;;;;
2023/07/11 02:09:12;;;;;;;12.9;6.6;;;;;;;20;81.9873;941.6364;;;;
2023/07/11 02:11:36;;;;;;;9.1;6.3;;;;;;;19.96;82.27148;941.5985;;;;
2023/07/11 02:14:05;;;;;;;15.1;6.8;;;;;;;19.77;83.21582;941.577;;;;
2023/07/11 02:16:35;;;;;;;8.9;6.5;;;;;;;19.77;83.41406;941.5172;;;;
2023/07/11 02:19:00;;;;;;;10;6.4;;;;;;;19.56;84.43555;941.4824;;;;
2023/07/11 02:21:30;;;;;;;11.1;6.3;;;;;;;19.58;84.26465;941.4796;;;;
2023/07/11 02:23:55;;;;;;;11;6.9;;;;;;;19.48;84.94336;941.4547;;;;
2023/07/11 02:26:22;;;;;;;691;385.2;;;;;;;19.31;85.77344;941.4246;;;;
2023/07/11 02:31:15;;;;;;;12.7;7.8;;;;;;;;;;;;;
2023/07/11 02:33:41;;;;;;;12.2;7.2;;;;;;;;;;;;;
2023/07/11 02:36:06;;;;;;;10.8;7.1;;;;;;;;;;;;;
2023/07/11 02:38:31;;;;;;;10.4;7.3;;;;;;;;;;;;;
2023/07/11 02:40:56;;;;;;;11;7.8;;;;;;;;;;;;;
2023/07/11 02:43:22;;;;;;;11.8;7.4;;;;;;;;;;;;;
2023/07/11 02:45:47;;;;;;;12.4;7.5;;;;;;;;;;;;;
2023/07/11 02:48:12;;;;;;;12.8;7.2;;;;;;;;;;;;;
2023/07/11 02:50:37;;;;;;;10.5;7.1;;;;;;;;;;;;;
2023/07/11 02:53:03;;;;;;;10.2;6.9;;;;;;;;;;;;;
2023/07/11 02:55:28;;;;;;;9.8;7.2;;;;;;;;;;;;;
2023/07/11 02:57:53;;;;;;;9.1;7.5;;;;;;;;;;;;;
2023/07/11 03:00:20;;;;;;;9.2;6.9;;;;;;;;;;;;;
2023/07/11 03:02:45;;;;;;;11.5;7.5;;;;;;;;;;;;;
2023/07/11 03:05:13;;;;;;;11.5;7;;;;;;;;;;;;;
2023/07/11 03:07:38;;;;;;;11.7;7.5;;;;;;;;;;;;;
2023/07/11 03:10:03;;;;;;;11.9;7.1;;;;;;;;;;;;;
2023/07/11 03:12:28;;;;;;;19.4;7.8;;;;;;;;;;;;;
2023/07/11 03:14:54;;;;;;;10.8;7.6;;;;;;;;;;;;;
2023/07/11 03:17:19;;;;;;;14.1;7.7;;;;;;;;;;;;;
2023/07/11 03:19:45;;;;;;;11.6;7.1;;;;;;;;;;;;;
2023/07/11 03:22:10;;;;;;;12.7;7.3;;;;;;;;;;;;;
2023/07/11 03:24:36;;;;;;;12.1;7.8;;;;;;;;;;;;;
2023/07/11 03:27:01;;;;;;;13.2;7.8;;;;;;;;;;;;;
2023/07/11 03:29:26;;;;;;;10.5;7.1;;;;;;;;;;;;;
2023/07/11 03:31:51;;;;;;;12.8;6.7;;;;;;;;;;;;;
2023/07/11 03:34:16;;;;;;;10.9;7.2;;;;;;;;;;;;;
2023/07/11 03:36:42;;;;;;;12.7;7.6;;;;;;;;;;;;;
2023/07/11 03:39:06;;;;;;;10.9;6.7;;;;;;;;;;;;;
2023/07/11 03:41:32;;;;;;;11.6;7.3;;;;;;;;;;;;;
2023/07/11 03:43:57;;;;;;;11.7;7.4;;;;;;;;;;;;;
2023/07/11 03:46:22;;;;;;;11.3;7.5;;;;;;;;;;;;;
2023/07/11 03:49:02;;;;;;;13.4;8.5;;;;;;;;;;;;;
2023/07/11 03:51:12;;;;;;;10.8;7.6;;;;;;;;;;;;;
2023/07/11 03:53:38;;;;;;;12.9;7.9;;;;;;;;;;;;;
2023/07/11 03:56:03;;;;;;;11.6;7.8;;;;;;;;;;;;;
2023/07/11 03:58:31;;;;;;;13.2;8.2;;;;;;;;;;;;;
2023/07/11 04:02:40;;;;;;;11.7;7.5;;;;;;;19.24;86.00391;940.6992;;;;
2023/07/11 04:05:20;;;;;;;10.7;7.4;;;;;;;19.35;85.8623;940.6922;;;;
2023/07/11 04:07:54;;;;;;;10.5;7.1;;;;;;;19.45;85.1377;940.7072;;;;
2023/07/11 04:10:26;;;;;;;12.2;7.9;;;;;;;19.5;84.80859;940.6916;;;;
2023/07/11 04:12:55;;;;;;;10.8;7.7;;;;;;;19.35;85.31445;940.7147;;;;
2023/07/11 04:15:20;;;;;;;11.8;8.1;;;;;;;19.43;85.19043;940.6625;;;;
2023/07/11 04:17:53;;;;;;;14.6;8.6;;;;;;;19.48;85.23633;940.6453;;;;
2023/07/11 04:20:23;;;;;;;48.9;27.2;;;;;;;19.55;84.71387;940.7071;;;;
2023/07/11 04:22:55;;;;;;;48.3;25.2;;;;;;;19.61;84.89941;940.625;;;;
2023/07/11 04:25:28;;;;;;;24.7;15.5;;;;;;;19.6;84.60645;940.6873;;;;
2023/07/11 04:28:00;;;;;;;17;11.1;;;;;;;19.69;84.35547;940.6292;;;;
2023/07/11 04:30:33;;;;;;;16.6;7.8;;;;;;;19.73;83.88574;940.6291;;;;
2023/07/11 04:33:08;;;;;;;12.7;7.5;;;;;;;19.77;84.06738;940.6436;;;;
2023/07/11 04:35:35;;;;;;;8.9;7.1;;;;;;;19.86;83.86133;940.6525;;;;
2023/07/11 04:48:44;;;;;;;12.9;7.7;;;;;;;19.81;83.81738;940.6953;;;;
2023/07/11 04:50:59;;;;;;;13.5;7.7;;;;;;;19.8;84.13281;940.7124;;;;
2023/07/11 04:53:23;;;;;;;9.4;7.1;;;;;;;19.9;83.90625;940.7533;;;;
2023/07/11 04:55:48;;;;;;;11.7;7.1;;;;;;;19.82;83.88965;940.7017;;;;
2023/07/11 04:58:23;;;;;;;12.2;7.6;;;;;;;19.65;85.03613;940.7344;;;;
2023/07/11 05:00:48;;;;;;;11.9;7.6;;;;;;;19.58;85.6748;940.7678;;;;
2023/07/11 05:03:19;;;;;;;12.8;7.7;;;;;;;19.58;85.70996;940.7719;;;;
2023/07/11 05:05:50;;;;;;;12;7.6;;;;;;;19.65;85.64258;940.7367;;;;
2023/07/11 05:08:20;;;;;;;12.1;7.3;;;;;;;19.88;85.41797;940.6883;;;;
2023/07/11 05:10:45;;;;;;;9.5;7.8;;;;;;;20.14;84.58008;940.7224;;;;
2023/07/11 05:13:11;;;;;;;13;7.5;;;;;;;20.74;81.6582;940.7126;;;;
2023/07/11 05:15:36;;;;;;;12;6.9;;;;;;;21.43;77.86426;940.5941;;;;
2023/07/11 05:18:06;;;;;;;16.7;7.2;;;;;;;21.97;75.89453;940.5528;;;;
2023/07/11 05:20:38;;;;;;;9.8;6.3;;;;;;;22.69;72.62598;940.5359;;;;
2023/07/11 05:23:04;;;;;;;12.5;6;;;;;;;23.33;70.31055;940.508;;;;
2023/07/11 05:25:35;;;;;;;9.9;6.1;;;;;;;23.55;69.16699;940.5875;;;;
2023/07/11 05:28:06;;;;;;;10.7;5.7;;;;;;;24.07;66.87988;940.5371;;;;
2023/07/11 05:30:36;;;;;;;10.6;6.1;;;;;;;24.53;65.8916;940.5225;;;;
2023/07/11 05:33:05;;;;;;;9.4;5.6;;;;;;;24.77;64.23926;940.5122;;;;
2023/07/11 05:35:30;;;;;;;10.1;5.3;;;;;;;25.12;63.69824;940.5162;;;;
2023/07/11 05:37:58;;;;;;;10.2;6.1;;;;;;;25.62;61.66602;940.5338;;;;
2023/07/11 05:40:23;;;;;;;8.2;5.7;;;;;;;25.99;60.23926;940.4313;;;;
2023/07/11 05:42:53;;;;;;;10.6;6.3;;;;;;;26.53;58.78418;940.4423;;;;
2023/07/11 05:45:23;;;;;;;10.7;6.1;;;;;;;26.7;57.35156;940.4781;;;;
2023/07/11 05:47:54;;;;;;;9;5.9;;;;;;;26.85;56.95508;940.4482;;;;
2023/07/11 05:50:25;;;;;;;9.6;6.1;;;;;;;26.58;57.26367;940.4227;;;;
2023/07/11 05:52:51;;;;;;;7.8;5.5;;;;;;;26.41;57.8457;940.4036;;;;
2023/07/11 05:55:22;;;;;;;8.2;5.6;;;;;;;27.12;56.19434;940.3951;;;;
2023/07/11 05:57:52;;;;;;;7.2;5.2;;;;;;;27.63;54.83398;940.4202;;;;
2023/07/11 06:00:22;;;;;;;9.2;5.5;;;;;;;28.04;53.19824;940.3535;;;;
2023/07/11 06:02:47;;;;;;;10.3;5.8;;;;;;;28.63;51.70898;940.3041;;;;
2023/07/11 06:05:18;;;;;;;10.5;5.9;;;;;;;28.86;51.09277;940.3455;;;;
2023/07/11 06:10:49;;;;;;;10.9;5.7;;;;;;;29.84;48.74707;940.2808;;;;
2023/07/11 06:13:19;;;;;;;8.7;5.4;;;;;;;30.02;47.91895;940.2242;;;;
2023/07/11 06:15:46;;;;;;;8.1;5.4;;;;;;;29.2;49.1416;940.2341;;;;
2023/07/11 06:18:15;;;;;;;9.6;5;;;;;;;29.65;49.64551;940.2567;;;;
2023/07/11 06:26:03;;;;;;;7.2;5.3;;;;;;;31.44;44.13184;940.228;;;;
2023/07/11 06:28:15;;;;;;;7.6;5;;;;;;;32.06;43.16113;940.1481;;;;
2023/07/11 06:33:47;;;;;;;7.4;5.2;;;;;;;32.37;41.43945;940.144;;;;
2023/07/11 06:36:12;;;;;;;8.2;5.4;;;;;;;32.91;40.13281;940.1175;;;;
2023/07/11 06:38:41;;;;;;;7;4.8;;;;;;;33.12;40.89551;940.1334;;;;
2023/07/11 06:41:10;;;;;;;9.2;5.6;;;;;;;33.85;39.2168;940.1017;;;;
2023/07/11 06:43:35;;;;;;;8.7;5.5;;;;;;;33.95;39.34473;940.0808;;;;
2023/07/11 06:46:07;;;;;;;6.9;5.4;;;;;;;34.35;37.90918;940.0639;;;;
2023/07/11 06:48:42;;;;;;;9.6;5.4;;;;;;;35.07;37.35449;940.0425;;;;
2023/07/11 06:51:07;;;;;;;7.9;5.2;;;;;;;35.37;35.66406;940.0912;;;;
2023/07/11 06:53:38;;;;;;;6.8;5.2;;;;;;;35.93;35.15137;940.0563;;;;
2023/07/11 06:56:10;;;;;;;6.4;5.1;;;;;;;36.52;34.78613;940.0483;;;;
2023/07/11 06:58:39;;;;;;;7.9;5;;;;;;;37.26;33.88379;940.007;;;;
2023/07/11 07:01:05;;;;;;;9.4;5.2;;;;;;;36.9;32.4043;939.998;;;;
2023/07/11 07:03:30;;;;;;;7;5;;;;;;;36.3;33.5957;939.9905;;;;
2023/07/11 07:05:59;;;;;;;10.7;5.9;;;;;;;37.23;32.99707;939.9098;;;;
2023/07/11 07:08:28;;;;;;;10.3;5.3;;;;;;;36.55;33.21484;939.94;;;;
2023/07/11 07:10:53;;;;;;;9.6;5.2;;;;;;;36.02;33.74414;939.8431;;;;
2023/07/11 07:13:21;;;;;;;7.4;5.1;;;;;;;36.61;35.39844;939.8514;;;;
2023/07/11 07:15:47;;;;;;;6.5;5.1;;;;;;;37.22;32.11133;939.7877;;;;
2023/07/11 07:18:18;;;;;;;10.4;5.3;;;;;;;36.24;32.78027;939.8158;;;;
2023/07/11 07:20:47;;;;;;;8.6;5.6;;;;;;;36.25;34.39063;939.8025;;;;
2023/07/11 07:23:13;;;;;;;7.2;5.1;;;;;;;36.67;34.78516;939.7919;;;;
2023/07/11 07:25:40;;;;;;;8.1;5.7;;;;;;;36.92;33.14453;939.7903;;;;
2023/07/11 07:28:07;;;;;;;8.3;5.3;;;;;;;38.03;31.23242;939.7598;;;;
2023/07/11 07:30:31;;;;;;;6.9;5.5;;;;;;;36.8;32.34766;939.7475;;;;
2023/07/11 07:32:56;;;;;;;7.7;5.4;;;;;;;36.53;33.06738;939.7072;;;;
2023/07/11 07:35:21;;;;;;;9.1;5.6;;;;;;;35.77;34.00293;939.6799;;;;
2023/07/11 07:37:47;;;;;;;7.7;5.4;;;;;;;35.67;34.44336;939.6644;;;;
2023/07/11 07:40:17;;;;;;;8.2;5.6;;;;;;;36.56;34.40234;939.6314;;;;
2023/07/11 07:42:42;;;;;;;8.5;5.4;;;;;;;36.12;33.94434;939.6205;;;;
2023/07/11 07:45:09;;;;;;;11.9;5.8;;;;;;;36.84;32.76367;939.6597;;;;
2023/07/11 07:47:35;;;;;;;10.1;6;;;;;;;37.9;32.66797;939.557;;;;
2023/07/11 07:50:04;;;;;;;8.2;5.8;;;;;;;38.94;31.57422;939.5919;;;;
2023/07/11 07:52:29;;;;;;;8.6;6.2;;;;;;;38.22;30.25;939.551;;;;
2023/07/11 07:54:57;;;;;;;9;5.2;;;;;;;39.6;29.13379;939.5594;;;;
2023/07/11 07:57:22;;;;;;;7.7;5.6;;;;;;;39.47;29.38184;939.5349;;;;
2023/07/11 07:59:50;;;;;;;7.7;5.6;;;;;;;39.78;28.6582;939.5;;;;
2023/07/11 08:02:15;;;;;;;11;5.4;;;;;;;39.6;28.95117;939.4781;;;;
2023/07/11 08:04:42;;;;;;;7.6;5.4;;;;;;;38.84;29.69434;939.4819;;;;
2023/07/11 08:07:07;;;;;;;7.6;5.7;;;;;;;38.1;30.5332;939.4389;;;;
2023/07/11 08:09:35;;;;;;;7.7;5.3;;;;;;;37.24;31.64063;939.4014;;;;
2023/07/11 08:12:00;;;;;;;8.8;5.6;;;;;;;37.56;30.89746;939.408;;;;
2023/07/11 08:14:30;;;;;;;8.6;5.3;;;;;;;35.93;33.80957;939.3716;;;;
2023/07/11 08:16:55;;;;;;;7.5;5.8;;;;;;;35.31;34.22363;939.3403;;;;
2023/07/11 08:19:23;;;;;;;9.3;5.4;;;;;;;37.05;33.09277;939.3414;;;;
2023/07/11 08:21:48;;;;;;;7.5;5.4;;;;;;;36.13;31.6123;939.2531;;;;
2023/07/11 08:24:17;;;;;;;7.9;5.2;;;;;;;36.71;33.08105;939.2947;;;;
2023/07/11 08:26:46;;;;;;;7;5;;;;;;;38.57;29.62793;939.1979;;;;
2023/07/11 08:29:12;;;;;;;7.3;5.3;;;;;;;38.84;29.92578;939.1426;;;;
2023/07/11 08:31:43;;;;;;;8.2;5.7;;;;;;;39.29;29.27246;939.1605;;;;
2023/07/11 08:34:15;;;;;;;8.1;5.7;;;;;;;39.9;30.16504;939.1683;;;;
2023/07/11 08:36:43;;;;;;;7.3;5.6;;;;;;;40.62;28.34375;939.1953;;;;
2023/07/11 08:39:09;;;;;;;7;5.1;;;;;;;40.33;25.88477;939.1345;;;;
2023/07/11 08:41:39;;;;;;;6;5.2;;;;;;;39.42;27.07617;939.079;;;;
2023/07/11 08:44:05;;;;;;;8.8;5.4;;;;;;;39.7;27.4707;939.1016;;;;
2023/07/11 08:46:30;;;;;;;8.3;5.3;;;;;;;40.29;26.65137;939.046;;;;
2023/07/11 08:48:56;;;;;;;7.2;5.2;;;;;;;39.34;27.64355;939.0291;;;;
2023/07/11 08:51:21;;;;;;;6.8;5.8;;;;;;;38.93;28.13086;938.9822;;;;
2023/07/11 08:53:46;;;;;;;9.5;5.5;;;;;;;38.96;28.08398;938.9934;;;;
2023/07/11 08:56:11;;;;;;;6.6;5.1;;;;;;;39.55;28.02148;939.0009;;;;
2023/07/11 08:58:39;;;;;;;9.9;5.4;;;;;;;38.72;28.94531;938.9157;;;;
2023/07/11 09:01:04;;;;;;;7.9;5.2;;;;;;;38.67;32.09082;938.8842;;;;
2023/07/11 09:03:30;;;;;;;5.6;5;;;;;;;38.72;31.82715;938.8819;;;;
2023/07/11 09:05:55;;;;;;;6.8;5.2;;;;;;;38.47;33.54785;938.8401;;;;
2023/07/11 09:08:20;;;;;;;7.9;5.2;;;;;;;39.01;31.08105;938.8417;;;;
2023/07/11 09:10:45;;;;;;;6.7;5;;;;;;;38.1;33.70313;938.8344;;;;
2023/07/11 09:13:10;;;;;;;10.4;6;;;;;;;36.88;37.91309;938.8491;;;;
2023/07/11 09:15:37;;;;;;;7;5;;;;;;;37.72;34.98535;938.8073;;;;
2023/07/11 09:18:06;;;;;;;10.5;5.9;;;;;;;36.16;39.77734;938.782;;;;
2023/07/11 09:20:35;;;;;;;8.7;5.2;;;;;;;37.81;34.77344;938.7506;;;;
2023/07/11 09:23:00;;;;;;;8.7;5.1;;;;;;;38.71;31.7041;938.6969;;;;
2023/07/11 09:25:30;;;;;;;7;4.8;;;;;;;38.73;34.21191;938.6866;;;;
2023/07/11 09:28:00;;;;;;;6.8;5;;;;;;;39.19;31.42188;938.6397;;;;
2023/07/11 09:30:25;;;;;;;7.8;5.3;;;;;;;39.42;30.87695;938.6062;;;;
2023/07/11 09:32:56;;;;;;;5.5;4.8;;;;;;;38.73;32.93457;938.6138;;;;
2023/07/11 09:35:22;;;;;;;7.8;4.6;;;;;;;38.2;34.84082;938.6378;;;;
2023/07/11 09:37:50;;;;;;;5.3;4.4;;;;;;;38.9;29.60156;938.6448;;;;
2023/07/11 09:40:16;;;;;;;7.2;5;;;;;;;38.95;29.6416;938.6219;;;;
2023/07/11 09:42:45;;;;;;;6.6;4.8;;;;;;;38.62;31.13867;938.6195;;;;
2023/07/11 09:45:10;;;;;;;7.4;4.4;;;;;;;38.5;30.52344;938.5991;;;;
2023/07/11 09:47:35;;;;;;;12;4.7;;;;;;;38.68;30.24316;938.5717;;;;
2023/07/11 09:50:00;;;;;;;6.7;5;;;;;;;38.95;31.40527;938.538;;;;
2023/07/11 09:52:30;;;;;;;7.7;4.9;;;;;;;39.06;31.07129;938.593;;;;
2023/07/11 09:54:57;;;;;;;5.4;4.6;;;;;;;39.27;29.41699;938.5715;;;;
2023/07/11 09:57:25;;;;;;;7.2;4.9;;;;;;;39.58;29.57129;938.5499;;;;
2023/07/11 09:59:50;;;;;;;7;4.5;;;;;;;39.3;31.2832;938.5589;;;;
2023/07/11 10:02:15;;;;;;;9;4.9;;;;;;;39.49;29.78418;938.5691;;;;
2023/07/11 10:04:46;;;;;;;9.4;4.8;;;;;;;38.35;31.58203;938.5375;;;;
2023/07/11 10:07:12;;;;;;;9.8;4.6;;;;;;;38.26;32.63379;938.4874;;;;
2023/07/11 10:09:43;;;;;;;7.4;4.8;;;;;;;38.11;30.9834;938.4308;;;;
2023/07/11 10:12:11;;;;;;;6.8;5;;;;;;;37.18;32.42383;938.4115;;;;
2023/07/11 10:14:39;;;;;;;7.2;4.7;;;;;;;36.37;35.64648;938.3524;;;;
2023/07/11 10:17:04;;;;;;;6.4;4.8;;;;;;;36.37;35.17285;938.387;;;;
2023/07/11 10:19:29;;;;;;;9.5;4.5;;;;;;;36.26;38.26172;938.2986;;;;
2023/07/11 10:21:54;;;;;;;7.2;4.4;;;;;;;36.06;38.2207;938.2988;;;;
2023/07/11 10:24:20;;;;;;;6.3;4.4;;;;;;;36.18;37.63867;938.3236;;;;
2023/07/11 10:26:46;;;;;;;6.4;4.9;;;;;;;36.12;37.18555;938.3153;;;;
2023/07/11 10:29:11;;;;;;;8.1;4.3;;;;;;;36.41;36.03613;938.2954;;;;
2023/07/11 10:31:36;;;;;;;6.1;4.4;;;;;;;36.36;35.17285;938.2974;;;;
2023/07/11 10:34:01;;;;;;;6.7;4.6;;;;;;;36.19;33.35742;938.2777;;;;
2023/07/11 10:36:26;;;;;;;5.8;4.5;;;;;;;36.16;33.81543;938.2241;;;;
2023/07/11 10:38:52;;;;;;;6.2;4.1;;;;;;;36.24;33.26465;938.2527;;;;
2023/07/11 10:41:17;;;;;;;9.7;4.5;;;;;;;36.35;33.21191;938.2203;;;;
2023/07/11 10:43:42;;;;;;;7.2;4.3;;;;;;;36.27;32.65039;938.1613;;;;
2023/07/11 10:46:07;;;;;;;7.5;4.4;;;;;;;36.03;33.64844;938.0779;;;;
2023/07/11 10:48:34;;;;;;;9.4;4.3;;;;;;;36.21;32.95996;938.0549;;;;
2023/07/11 10:50:59;;;;;;;6.2;4.5;;;;;;;36.29;31.71973;938.0508;;;;
2023/07/11 10:53:24;;;;;;;5.8;4;;;;;;;36.16;31.73438;938.024;;;;
2023/07/11 10:55:49;;;;;;;8;4.2;;;;;;;36.17;32.19531;937.9391;;;;
2023/07/11 10:58:14;;;;;;;7.1;4.3;;;;;;;36.07;33.05957;937.9728;;;;
2023/07/11 11:00:41;;;;;;;8.8;4.6;;;;;;;36.06;33.39551;937.932;;;;
2023/07/11 11:03:08;;;;;;;7.3;4.2;;;;;;;35.85;32.68066;937.8403;;;;
2023/07/11 11:05:35;;;;;;;5.5;4.2;;;;;;;35.88;34.24121;937.8563;;;;
2023/07/11 11:08:00;;;;;;;4.6;3.9;;;;;;;35.66;32.49805;937.8419;;;;
2023/07/11 11:10:26;;;;;;;8;4;;;;;;;35.86;32.19727;937.798;;;;
2023/07/11 11:12:50;;;;;;;6.4;3.9;;;;;;;35.7;34.84473;937.758;;;;
2023/07/11 11:15:18;;;;;;;6.9;4;;;;;;;35.75;32.95117;937.7561;;;;
2023/07/11 11:17:44;;;;;;;6.2;3.8;;;;;;;35.96;30.71777;937.6948;;;;
2023/07/11 11:20:15;;;;;;;4.7;3.8;;;;;;;35.98;31.04492;937.6939;;;;
2023/07/11 11:22:46;;;;;;;6.4;3.1;;;;;;;35.21;34.28809;937.6811;;;;
2023/07/11 11:25:17;;;;;;;7.7;4.1;;;;;;;35.45;32.2168;937.6501;;;;
2023/07/11 11:27:45;;;;;;;4.7;4;;;;;;;35.83;33.0293;937.657;;;;
2023/07/11 11:30:10;;;;;;;6.5;4;;;;;;;35.65;30.98633;937.5892;;;;
2023/07/11 11:32:37;;;;;;;9.4;4.1;;;;;;;35.79;30.54883;937.5542;;;;
2023/07/11 11:35:03;;;;;;;10.2;4.2;;;;;;;35.05;31.06641;937.4874;;;;
2023/07/11 11:37:32;;;;;;;8.3;4;;;;;;;34.94;35.12402;937.4417;;;;
2023/07/11 11:40:01;;;;;;;6.4;3.8;;;;;;;34.34;34.87402;937.3989;;;;
2023/07/11 11:42:30;;;;;;;5.1;3.6;;;;;;;34.18;36.04102;937.4102;;;;
2023/07/11 11:44:53;;;;;;;8;3.5;;;;;;;34.1;34.97461;937.3922;;;;
2023/07/11 11:47:18;;;;;;;4.9;3.8;;;;;;;33.94;36.47949;937.4189;;;;
2023/07/11 11:49:46;;;;;;;7.9;3.9;;;;;;;34.47;31.89453;937.3809;;;;
2023/07/11 11:52:11;;;;;;;5.5;4;;;;;;;34.97;32.49707;937.2896;;;;
2023/07/11 11:54:41;;;;;;;6.9;4.2;;;;;;;35.2;34.92676;937.3265;;;;
2023/07/11 11:57:06;;;;;;;6.9;3.9;;;;;;;34.55;34.80469;937.2597;;;;
2023/07/11 11:59:35;;;;;;;8.4;4;;;;;;;34.54;36.76855;937.2776;;;;
2023/07/11 12:02:00;;;;;;;5.3;3.5;;;;;;;34.78;34.0752;937.2475;;;;
2023/07/11 12:04:25;;;;;;;4.1;3.6;;;;;;;34.69;35.38184;937.1953;;;;
2023/07/11 12:06:51;;;;;;;14.5;4.2;;;;;;;34.71;34.51563;937.1956;;;;
2023/07/11 12:09:21;;;;;;;5.5;3.8;;;;;;;34.85;34.40625;937.1463;;;;
2023/07/11 12:11:46;;;;;;;6.2;3.8;;;;;;;34.9;32.86621;937.117;;;;
2023/07/11 12:14:18;;;;;;;7.3;4.1;;;;;;;34.74;33.75781;937.0622;;;;
2023/07/11 12:16:47;;;;;;;7.1;4.1;;;;;;;34.59;33.14551;937.0561;;;;
2023/07/11 12:19:21;;;;;;;8.7;3.7;;;;;;;34.3;33.19629;937.0275;;;;
2023/07/11 12:21:49;;;;;;;4.5;3.6;;;;;;;34.39;35.23828;937.0056;;;;
2023/07/11 12:24:18;;;;;;;9;3.7;;;;;;;34.43;32.77246;936.9034;;;;
2023/07/11 12:26:45;;;;;;;5.3;3.8;;;;;;;34.39;31.7207;936.9311;;;;
2023/07/11 12:29:15;;;;;;;6.7;4.1;;;;;;;34.79;31.32617;936.9144;;;;
2023/07/11 12:31:40;;;;;;;5.5;4.1;;;;;;;35.03;29.56934;936.8684;;;;
2023/07/11 12:34:08;;;;;;;8.2;3.8;;;;;;;34.85;35.75586;936.7776;;;;
2023/07/11 12:36:34;;;;;;;5;3.8;;;;;;;34.67;35.25977;936.8038;;;;
2023/07/11 12:39:02;;;;;;;7.3;4.1;;;;;;;34.65;35.80078;936.799;;;;
2023/07/11 12:41:33;;;;;;;6.5;3.6;;;;;;;34.9;31.68359;936.7711;;;;
2023/07/11 12:44:01;;;;;;;6.8;3.7;;;;;;;35.04;30.36621;936.6744;;;;
2023/07/11 12:46:24;;;;;;;6.8;4.3;;;;;;;34.96;36.70605;936.6608;;;;
2023/07/11 12:48:54;;;;;;;5.6;3.8;;;;;;;34.7;35.07031;936.6258;;;;
2023/07/11 12:51:18;;;;;;;7.4;4.1;;;;;;;34.69;36.12988;936.5704;;;;
2023/07/11 12:53:44;;;;;;;4.2;3.4;;;;;;;34.61;33.74902;936.5793;;;;
2023/07/11 12:56:12;;;;;;;5.7;3.9;;;;;;;34.71;37.44531;936.6253;;;;
2023/07/11 12:58:37;;;;;;;6.3;3.9;;;;;;;34.49;30.7627;936.5287;;;;
2023/07/11 13:01:05;;;;;;;5.8;4;;;;;;;34.53;34.91211;936.5419;;;;
2023/07/11 13:03:30;;;;;;;4.9;3.8;;;;;;;34.57;35.9873;936.5283;;;;
2023/07/11 13:05:57;;;;;;;6.7;3.6;;;;;;;34.91;31.88965;936.4286;;;;
2023/07/11 13:08:22;;;;;;;8.4;4;;;;;;;34.95;31.07129;936.4304;;;;
2023/07/11 13:10:48;;;;;;;5.3;3.5;;;;;;;35.06;30.56055;936.4269;;;;
2023/07/11 13:13:14;;;;;;;5.1;3.7;;;;;;;35.35;33.33203;936.4416;;;;
2023/07/11 13:15:39;;;;;;;6.6;3.6;;;;;;;35.21;33.52734;936.4324;;;;
2023/07/11 13:18:09;;;;;;;7.7;3.9;;;;;;;35.36;30.95508;936.4225;;;;
2023/07/11 13:20:35;;;;;;;6.5;3.9;;;;;;;35.64;29.04102;936.4019;;;;
2023/07/11 13:23:02;;;;;;;7;3.7;;;;;;;35.8;28.65234;936.3244;;;;
2023/07/11 13:25:28;;;;;;;6.4;3.7;;;;;;;35.87;29.98633;936.2978;;;;
2023/07/11 13:27:53;;;;;;;8;3.9;;;;;;;35.93;30.31641;936.258;;;;
2023/07/11 13:30:20;;;;;;;5.8;4;;;;;;;35.93;30.30469;936.2784;;;;
2023/07/11 13:32:45;;;;;;;7.4;3.9;;;;;;;35.7;29.43164;936.2045;;;;
2023/07/11 13:35:20;;;;;;;5.6;3.8;;;;;;;35.55;34.55469;936.235;;;;
2023/07/11 13:37:47;;;;;;;8.6;3.7;;;;;;;35.29;29.96094;936.1869;;;;
2023/07/11 13:40:17;;;;;;;6.9;3.6;;;;;;;35.16;32.57031;936.2322;;;;
2023/07/11 13:42:44;;;;;;;5.1;3.4;;;;;;;35.42;30.19824;936.2137;;;;
2023/07/11 13:45:18;;;;;;;4.8;3.4;;;;;;;35.61;28.83301;936.1348;;;;
2023/07/11 13:47:44;;;;;;;7.8;3.7;;;;;;;35.69;31.75098;936.1817;;;;
2023/07/11 13:50:12;;;;;;;6.2;3.7;;;;;;;35.56;32.93652;936.171;;;;
2023/07/11 13:52:44;;;;;;;5.6;3.5;;;;;;;35.5;32.6543;936.0817;;;;
2023/07/11 13:55:13;;;;;;;5.7;3.4;;;;;;;35.3;30.99902;936.0831;;;;
2023/07/11 13:57:38;;;;;;;7.3;3.8;;;;;;;35.42;31.30957;936.1131;;;;
2023/07/11 14:00:14;;;;;;;4.7;3.5;;;;;;;35.39;30.74023;936.1501;;;;
2023/07/11 14:02:45;;;;;;;5.7;3.5;;;;;;;35.43;30.22266;936.0901;;;;
2023/07/11 14:05:12;;;;;;;5.5;3.9;;;;;;;35.46;31.26367;936.1175;;;;
2023/07/11 14:07:39;;;;;;;7.4;3.7;;;;;;;35.07;34.77246;936.1472;;;;
2023/07/11 14:10:11;;;;;;;8.2;3.7;;;;;;;34.88;34.72168;936.1593;;;;
2023/07/11 14:12:36;;;;;;;6.6;3.8;;;;;;;34.98;31.29102;936.127;;;;
2023/07/11 14:15:05;;;;;;;5.9;3.4;;;;;;;35.1;34.01465;936.161;;;;
2023/07/11 14:17:34;;;;;;;5.5;3.7;;;;;;;34.94;35.47363;936.1152;;;;
2023/07/11 14:20:02;;;;;;;6.1;4;;;;;;;34.52;36.24902;936.1144;;;;
2023/07/11 14:22:27;;;;;;;6.2;3.7;;;;;;;34.28;34.41016;936.0865;;;;
2023/07/11 14:24:55;;;;;;;5.6;3.9;;;;;;;34.15;34.10059;936.0605;;;;
2023/07/11 14:27:20;;;;;;;5.5;4;;;;;;;33.97;37.46875;936.0466;;;;
2023/07/11 14:29:49;;;;;;;5.1;3.6;;;;;;;34.03;35.21094;936.0261;;;;
2023/07/11 14:32:14;;;;;;;5;3.5;;;;;;;34.11;34.74707;936.043;;;;
2023/07/11 14:34:39;;;;;;;6.7;3.9;;;;;;;34.03;34.41602;936.0215;;;;
2023/07/11 14:37:04;;;;;;;9.1;3.7;;;;;;;33.89;38.0752;935.9626;;;;
2023/07/11 14:39:30;;;;;;;4.6;3.5;;;;;;;33.59;36.7998;935.897;;;;
2023/07/11 14:41:55;;;;;;;5.2;3.8;;;;;;;33.61;36.26074;936.0148;;;;
2023/07/11 14:44:24;;;;;;;6.4;3.8;;;;;;;33.54;38.9248;935.9389;;;;
2023/07/11 14:46:49;;;;;;;6;3.8;;;;;;;33.49;35.53027;935.9305;;;;
2023/07/11 14:49:14;;;;;;;5.7;3.7;;;;;;;33.49;39.35352;935.937;;;;
2023/07/11 14:51:42;;;;;;;7.6;3.8;;;;;;;33.35;38.76367;935.8519;;;;
2023/07/11 14:54:08;;;;;;;6.9;3.9;;;;;;;33.49;35.99805;935.8639;;;;
2023/07/11 14:56:33;;;;;;;5;3.7;;;;;;;33.66;34.36426;935.8474;;;;
2023/07/11 14:58:59;;;;;;;7.6;4;;;;;;;33.77;36.29688;935.8708;;;;
2023/07/11 15:01:24;;;;;;;6;3.8;;;;;;;33.65;37.74316;935.8839;;;;
2023/07/11 15:03:51;;;;;;;5.5;4;;;;;;;33.45;33.6748;935.8624;;;;
2023/07/11 15:06:16;;;;;;;5.9;4.3;;;;;;;33.47;34.37305;935.8445;;;;
2023/07/11 15:08:44;;;;;;;5.1;3.9;;;;;;;33.48;35.54199;935.8136;;;;
2023/07/11 15:11:10;;;;;;;5.6;3.9;;;;;;;33.45;36.50098;935.8056;;;;
2023/07/11 15:13:38;;;;;;;5.7;3.8;;;;;;;33.52;34.2334;935.7473;;;;
2023/07/11 15:16:03;;;;;;;7.8;4.3;;;;;;;33.6;35.0459;935.7537;;;;